Aviation Digital Data Service (ADDS)

Output produced by METARs form (1211 UTC 19 January 2019)
found at http://www.aviationweather.gov/metar/data/
 
METAR text: RJSM 191200Z 30005KT 9999 FEW020 BKN030 00/M09 Q1016
Conditions at: RJSM (MISAWA(JASDF/AF/, JP) observed 1200 UTC 19 January 2019
Temperature: 0.0°C (32°F)
Dewpoint: -9.0°C (16°F) [RH = 51%]
Pressure (altimeter): 30.00 inches Hg (1016.0 mb)
Winds: from the WNW (300 degrees) at 6 MPH (5 knots; 2.6 m/s)
Visibility: 6 or more miles (10+ km)
Ceiling: 3000 feet AGL
Clouds: few clouds at 2000 feet AGL
broken clouds at 3000 feet AGL
Weather: no significant weather observed at this time

METAR text: RJSM 191100Z 29006KT 9999 FEW020 BKN030 00/M09 Q1016
Conditions at: RJSM (MISAWA(JASDF/AF/, JP) observed 1100 UTC 19 January 2019
Temperature: 0.0°C (32°F)
Dewpoint: -9.0°C (16°F) [RH = 51%]
Pressure (altimeter): 30.00 inches Hg (1016.0 mb)
Winds: from the WNW (290 degrees) at 7 MPH (6 knots; 3.1 m/s)
Visibility: 6 or more miles (10+ km)
Ceiling: 3000 feet AGL
Clouds: few clouds at 2000 feet AGL
broken clouds at 3000 feet AGL
Weather: no significant weather observed at this time

METAR text: RJSM 191000Z 28006KT 9999 FEW015 BKN030 M01/M08 Q1016
Conditions at: RJSM (MISAWA(JASDF/AF/, JP) observed 1000 UTC 19 January 2019
Temperature: -1.0°C (30°F)
Dewpoint: -8.0°C (18°F) [RH = 59%]
Pressure (altimeter): 30.00 inches Hg (1016.0 mb)
Winds: from the W (280 degrees) at 7 MPH (6 knots; 3.1 m/s)
Visibility: 6 or more miles (10+ km)
Ceiling: 3000 feet AGL
Clouds: few clouds at 1500 feet AGL
broken clouds at 3000 feet AGL
Weather: no significant weather observed at this time

METAR text: RJSM 190900Z 29007KT 9999 FEW015 BKN030 M00/M07 Q1016
Conditions at: RJSM (MISAWA(JASDF/AF/, JP) observed 0900 UTC 19 January 2019
Temperature: 0.0°C (32°F)
Dewpoint: -7.0°C (19°F) [RH = 59%]
Pressure (altimeter): 30.00 inches Hg (1016.0 mb)
Winds: from the WNW (290 degrees) at 8 MPH (7 knots; 3.6 m/s)
Visibility: 6 or more miles (10+ km)
Ceiling: 3000 feet AGL
Clouds: few clouds at 1500 feet AGL
broken clouds at 3000 feet AGL
Weather: no significant weather observed at this time

METAR text: RJSM 190800Z 29012KT 9999 FEW015 SCT030 M00/M07 Q1016
Conditions at: RJSM (MISAWA(JASDF/AF/, JP) observed 0800 UTC 19 January 2019
Temperature: 0.0°C (32°F)
Dewpoint: -7.0°C (19°F) [RH = 59%]
Pressure (altimeter): 30.00 inches Hg (1016.0 mb)
Winds: from the WNW (290 degrees) at 14 MPH (12 knots; 6.2 m/s)
Visibility: 6 or more miles (10+ km)
Ceiling: at least 12,000 feet AGL
Clouds: few clouds at 1500 feet AGL
scattered clouds at 3000 feet AGL
Weather: no significant weather observed at this time

METAR text: RJSM 190700Z 30011KT 9999 FEW015 BKN030 00/M07 Q1016
Conditions at: RJSM (MISAWA(JASDF/AF/, JP) observed 0700 UTC 19 January 2019
Temperature: 0.0°C (32°F)
Dewpoint: -7.0°C (19°F) [RH = 59%]
Pressure (altimeter): 30.00 inches Hg (1016.0 mb)
Winds: from the WNW (300 degrees) at 13 MPH (11 knots; 5.7 m/s)
Visibility: 6 or more miles (10+ km)
Ceiling: 3000 feet AGL
Clouds: few clouds at 1500 feet AGL
broken clouds at 3000 feet AGL
Weather: no significant weather observed at this time

METAR text: RJSM 190600Z 30014KT 9999 FEW015 SCT030 01/M08 Q1016
Conditions at: RJSM (MISAWA(JASDF/AF/, JP) observed 0600 UTC 19 January 2019
Temperature: 1.0°C (34°F)
Dewpoint: -8.0°C (18°F) [RH = 51%]
Pressure (altimeter): 30.00 inches Hg (1016.0 mb)
Winds: from the WNW (300 degrees) at 16 MPH (14 knots; 7.2 m/s)
Visibility: 6 or more miles (10+ km)
Ceiling: at least 12,000 feet AGL
Clouds: few clouds at 1500 feet AGL
scattered clouds at 3000 feet AGL
Weather: no significant weather observed at this time

METAR text: RJSM 190500Z 29017KT 9999 -SHSN FEW015 BKN030 01/M08 Q1015
Conditions at: RJSM (MISAWA(JASDF/AF/, JP) observed 0500 UTC 19 January 2019
Temperature: 1.0°C (34°F)
Dewpoint: -8.0°C (18°F) [RH = 51%]
Pressure (altimeter): 29.97 inches Hg (1015.0 mb)
Winds: from the WNW (290 degrees) at 20 MPH (17 knots; 8.7 m/s)
Visibility: 6 or more miles (10+ km)
Ceiling: 3000 feet AGL
Clouds: few clouds at 1500 feet AGL
broken clouds at 3000 feet AGL
Weather: -SHSN  (light snow showers)

METAR text: RJSM 190400Z 29020KT 9999 FEW015 SCT030 01/M09 Q1016
Conditions at: RJSM (MISAWA(JASDF/AF/, JP) observed 0400 UTC 19 January 2019
Temperature: 1.0°C (34°F)
Dewpoint: -9.0°C (16°F) [RH = 47%]
Pressure (altimeter): 30.00 inches Hg (1016.0 mb)
Winds: from the WNW (290 degrees) at 23 MPH (20 knots; 10.3 m/s)
Visibility: 6 or more miles (10+ km)
Ceiling: at least 12,000 feet AGL
Clouds: few clouds at 1500 feet AGL
scattered clouds at 3000 feet AGL
Weather: no significant weather observed at this time

METAR text: RJSM 190300Z 29019KT 9999 FEW015 SCT030 01/M09 Q1016
Conditions at: RJSM (MISAWA(JASDF/AF/, JP) observed 0300 UTC 19 January 2019
Temperature: 1.0°C (34°F)
Dewpoint: -9.0°C (16°F) [RH = 47%]
Pressure (altimeter): 30.00 inches Hg (1016.0 mb)
Winds: from the WNW (290 degrees) at 22 MPH (19 knots; 9.8 m/s)
Visibility: 6 or more miles (10+ km)
Ceiling: at least 12,000 feet AGL
Clouds: few clouds at 1500 feet AGL
scattered clouds at 3000 feet AGL
Weather: no significant weather observed at this time

METAR text: RJSM 190200Z 30016KT 9999 FEW015 SCT030 00/M10 Q1017
Conditions at: RJSM (MISAWA(JASDF/AF/, JP) observed 0200 UTC 19 January 2019
Temperature: 0.0°C (32°F)
Dewpoint: -10.0°C (14°F) [RH = 47%]
Pressure (altimeter): 30.03 inches Hg (1017.0 mb)
Winds: from the WNW (300 degrees) at 18 MPH (16 knots; 8.2 m/s)
Visibility: 6 or more miles (10+ km)
Ceiling: at least 12,000 feet AGL
Clouds: few clouds at 1500 feet AGL
scattered clouds at 3000 feet AGL
Weather: no significant weather observed at this time

METAR text: RJSM 190100Z 29012KT 250V340 9999 -SHSN FEW015 BKN030 M00/M09 Q1017
Conditions at: RJSM (MISAWA(JASDF/AF/, JP) observed 0100 UTC 19 January 2019
Temperature: 0.0°C (32°F)
Dewpoint: -9.0°C (16°F) [RH = 51%]
Pressure (altimeter): 30.03 inches Hg (1017.0 mb)
Winds: from the WNW (290 degrees) at 14 MPH (12 knots; 6.2 m/s)
Visibility: 6 or more miles (10+ km)
Ceiling: 3000 feet AGL
Clouds: few clouds at 1500 feet AGL
broken clouds at 3000 feet AGL
Weather: -SHSN  (light snow showers)

METAR text: RJSM 190000Z 29012KT 9999 -SHSN FEW015 SCT030 M01/M09 Q1017
Conditions at: RJSM (MISAWA(JASDF/AF/, JP) observed 0000 UTC 19 January 2019
Temperature: -1.0°C (30°F)
Dewpoint: -9.0°C (16°F) [RH = 55%]
Pressure (altimeter): 30.03 inches Hg (1017.0 mb)
Winds: from the WNW (290 degrees) at 14 MPH (12 knots; 6.2 m/s)
Visibility: 6 or more miles (10+ km)
Ceiling: at least 12,000 feet AGL
Clouds: few clouds at 1500 feet AGL
scattered clouds at 3000 feet AGL
Weather: -SHSN  (light snow showers)

METAR text: RJSM 182300Z VRB01KT 9999 FEW015 BKN030 M02/M09 Q1017
Conditions at: RJSM (MISAWA(JASDF/AF/, JP) observed 2300 UTC 18 January 2019
Temperature: -2.0°C (28°F)
Dewpoint: -9.0°C (16°F) [RH = 59%]
Pressure (altimeter): 30.03 inches Hg (1017.0 mb)
Winds: variable direction winds at 1 MPH (1 knots; 0.5 m/s)
Visibility: 6 or more miles (10+ km)
Ceiling: 3000 feet AGL
Clouds: few clouds at 1500 feet AGL
broken clouds at 3000 feet AGL
Weather: no significant weather observed at this time

METAR text: RJSM 182200Z 28011KT 9999 -SHSN FEW015 SCT030 M03/M09 Q1017
Conditions at: RJSM (MISAWA(JASDF/AF/, JP) observed 2200 UTC 18 January 2019
Temperature: -3.0°C (27°F)
Dewpoint: -9.0°C (16°F) [RH = 63%]
Pressure (altimeter): 30.03 inches Hg (1017.0 mb)
Winds: from the W (280 degrees) at 13 MPH (11 knots; 5.7 m/s)
Visibility: 6 or more miles (10+ km)
Ceiling: at least 12,000 feet AGL
Clouds: few clouds at 1500 feet AGL
scattered clouds at 3000 feet AGL
Weather: -SHSN  (light snow showers)

METAR text: RJSM 182100Z 30016KT 9999 -SHSN FEW015 SCT030 M02/M09 Q1016
Conditions at: RJSM (MISAWA(JASDF/AF/, JP) observed 2100 UTC 18 January 2019
Temperature: -2.0°C (28°F)
Dewpoint: -9.0°C (16°F) [RH = 59%]
Pressure (altimeter): 30.00 inches Hg (1016.0 mb)
Winds: from the WNW (300 degrees) at 18 MPH (16 knots; 8.2 m/s)
Visibility: 6 or more miles (10+ km)
Ceiling: at least 12,000 feet AGL
Clouds: few clouds at 1500 feet AGL
scattered clouds at 3000 feet AGL
Weather: -SHSN  (light snow showers)

METAR text: RJSM 182000Z 29016KT 9999 -SHSN FEW015 SCT030 M03/M09 Q1016
Conditions at: RJSM (MISAWA(JASDF/AF/, JP) observed 2000 UTC 18 January 2019
Temperature: -3.0°C (27°F)
Dewpoint: -9.0°C (16°F) [RH = 63%]
Pressure (altimeter): 30.00 inches Hg (1016.0 mb)
Winds: from the WNW (290 degrees) at 18 MPH (16 knots; 8.2 m/s)
Visibility: 6 or more miles (10+ km)
Ceiling: at least 12,000 feet AGL
Clouds: few clouds at 1500 feet AGL
scattered clouds at 3000 feet AGL
Weather: -SHSN  (light snow showers)

METAR text: RJSM 181900Z 27009KT 9999 -SHSN FEW030 M03/M08 Q1016
Conditions at: RJSM (MISAWA(JASDF/AF/, JP) observed 1900 UTC 18 January 2019
Temperature: -3.0°C (27°F)
Dewpoint: -8.0°C (18°F) [RH = 68%]
Pressure (altimeter): 30.00 inches Hg (1016.0 mb)
Winds: from the W (270 degrees) at 10 MPH (9 knots; 4.6 m/s)
Visibility: 6 or more miles (10+ km)
Ceiling: at least 12,000 feet AGL
Clouds: few clouds at 3000 feet AGL
Weather: -SHSN  (light snow showers)

METAR text: RJSM 181800Z 28014KT 9999 -SHSN FEW020 SCT030 M03/M08 Q1016
Conditions at: RJSM (MISAWA(JASDF/AF/, JP) observed 1800 UTC 18 January 2019
Temperature: -3.0°C (27°F)
Dewpoint: -8.0°C (18°F) [RH = 68%]
Pressure (altimeter): 30.00 inches Hg (1016.0 mb)
Winds: from the W (280 degrees) at 16 MPH (14 knots; 7.2 m/s)
Visibility: 6 or more miles (10+ km)
Ceiling: at least 12,000 feet AGL
Clouds: few clouds at 2000 feet AGL
scattered clouds at 3000 feet AGL
Weather: -SHSN  (light snow showers)

METAR text: RJSM 181700Z 26008KT 9999 -SHSN FEW020 BKN030 M03/M09 Q1015
Conditions at: RJSM (MISAWA(JASDF/AF/, JP) observed 1700 UTC 18 January 2019
Temperature: -3.0°C (27°F)
Dewpoint: -9.0°C (16°F) [RH = 63%]
Pressure (altimeter): 29.97 inches Hg (1015.0 mb)
Winds: from the W (260 degrees) at 9 MPH (8 knots; 4.1 m/s)
Visibility: 6 or more miles (10+ km)
Ceiling: 3000 feet AGL
Clouds: few clouds at 2000 feet AGL
broken clouds at 3000 feet AGL
Weather: -SHSN  (light snow showers)

METAR text: RJSM 181600Z 28013KT 9999 -SHSN FEW020 SCT030 M03/M08 Q1015
Conditions at: RJSM (MISAWA(JASDF/AF/, JP) observed 1600 UTC 18 January 2019
Temperature: -3.0°C (27°F)
Dewpoint: -8.0°C (18°F) [RH = 68%]
Pressure (altimeter): 29.97 inches Hg (1015.0 mb)
Winds: from the W (280 degrees) at 15 MPH (13 knots; 6.7 m/s)
Visibility: 6 or more miles (10+ km)
Ceiling: at least 12,000 feet AGL
Clouds: few clouds at 2000 feet AGL
scattered clouds at 3000 feet AGL
Weather: -SHSN  (light snow showers)

METAR text: RJSM 181500Z 28009KT 9999 -SHSN FEW015 BKN025 M03/M09 Q1015
Conditions at: RJSM (MISAWA(JASDF/AF/, JP) observed 1500 UTC 18 January 2019
Temperature: -3.0°C (27°F)
Dewpoint: -9.0°C (16°F) [RH = 63%]
Pressure (altimeter): 29.97 inches Hg (1015.0 mb)
Winds: from the W (280 degrees) at 10 MPH (9 knots; 4.6 m/s)
Visibility: 6 or more miles (10+ km)
Ceiling: 2500 feet AGL
Clouds: few clouds at 1500 feet AGL
broken clouds at 2500 feet AGL
Weather: -SHSN  (light snow showers)

METAR text: RJSM 181400Z 31007KT 9999 -SHSN FEW020 BKN030 M03/M10 Q1015
Conditions at: RJSM (MISAWA(JASDF/AF/, JP) observed 1400 UTC 18 January 2019
Temperature: -3.0°C (27°F)
Dewpoint: -10.0°C (14°F) [RH = 58%]
Pressure (altimeter): 29.97 inches Hg (1015.0 mb)
Winds: from the NW (310 degrees) at 8 MPH (7 knots; 3.6 m/s)
Visibility: 6 or more miles (10+ km)
Ceiling: 3000 feet AGL
Clouds: few clouds at 2000 feet AGL
broken clouds at 3000 feet AGL
Weather: -SHSN  (light snow showers)

METAR text: RJSM 181300Z 29015KT 9999 -SHSN FEW015 SCT030 M03/M09 Q1014
Conditions at: RJSM (MISAWA(JASDF/AF/, JP) observed 1300 UTC 18 January 2019
Temperature: -3.0°C (27°F)
Dewpoint: -9.0°C (16°F) [RH = 63%]
Pressure (altimeter): 29.94 inches Hg (1014.0 mb)
Winds: from the WNW (290 degrees) at 17 MPH (15 knots; 7.7 m/s)
Visibility: 6 or more miles (10+ km)
Ceiling: at least 12,000 feet AGL
Clouds: few clouds at 1500 feet AGL
scattered clouds at 3000 feet AGL
Weather: -SHSN  (light snow showers)

METAR text: RJSM 181200Z 29016KT 7000 -SHSN FEW008 SCT015 BKN025 M03/M07 Q1014
Conditions at: RJSM (MISAWA(JASDF/AF/, JP) observed 1200 UTC 18 January 2019
Temperature: -3.0°C (27°F)
Dewpoint: -7.0°C (19°F) [RH = 74%]
Pressure (altimeter): 29.94 inches Hg (1014.0 mb)
Winds: from the WNW (290 degrees) at 18 MPH (16 knots; 8.2 m/s)
Visibility: 4 miles ( 7 km)
Ceiling: 2500 feet AGL
Clouds: few clouds at 800 feet AGL
scattered clouds at 1500 feet AGL
broken clouds at 2500 feet AGL
Weather: -SHSN  (light snow showers)

METAR text: RJSM 181100Z 29013KT 8000 -SHSN FEW008 SCT015 BKN025 M03/M07 Q1014
Conditions at: RJSM (MISAWA(JASDF/AF/, JP) observed 1100 UTC 18 January 2019
Temperature: -3.0°C (27°F)
Dewpoint: -7.0°C (19°F) [RH = 74%]
Pressure (altimeter): 29.94 inches Hg (1014.0 mb)
Winds: from the WNW (290 degrees) at 15 MPH (13 knots; 6.7 m/s)
Visibility: 5 miles ( 8 km)
Ceiling: 2500 feet AGL
Clouds: few clouds at 800 feet AGL
scattered clouds at 1500 feet AGL
broken clouds at 2500 feet AGL
Weather: -SHSN  (light snow showers)

METAR text: RJSM 181000Z 29006KT 9999 -SHSN FEW015 BKN025 M03/M08 Q1013
Conditions at: RJSM (MISAWA(JASDF/AF/, JP) observed 1000 UTC 18 January 2019
Temperature: -3.0°C (27°F)
Dewpoint: -8.0°C (18°F) [RH = 68%]
Pressure (altimeter): 29.91 inches Hg (1013.0 mb)
Winds: from the WNW (290 degrees) at 7 MPH (6 knots; 3.1 m/s)
Visibility: 6 or more miles (10+ km)
Ceiling: 2500 feet AGL
Clouds: few clouds at 1500 feet AGL
broken clouds at 2500 feet AGL
Weather: -SHSN  (light snow showers)

METAR text: RJSM 180900Z 28015KT 7000 -SHSN FEW008 SCT015 BKN025 M04/M07 Q1011 REBLSN
Conditions at: RJSM (MISAWA(JASDF/AF/, JP) observed 0900 UTC 18 January 2019
Temperature: -4.0°C (25°F)
Dewpoint: -7.0°C (19°F) [RH = 80%]
Pressure (altimeter): 29.85 inches Hg (1011.0 mb)
Winds: from the W (280 degrees) at 17 MPH (15 knots; 7.7 m/s)
Visibility: 4 miles ( 7 km)
Ceiling: 2500 feet AGL
Clouds: few clouds at 800 feet AGL
scattered clouds at 1500 feet AGL
broken clouds at 2500 feet AGL
Weather: -SHSN  (light snow showers)

METAR text: RJSM 180800Z 28021KT 7000 -SHSN BLSN FEW008 BKN025 M03/M08 Q1011
Conditions at: RJSM (MISAWA(JASDF/AF/, JP) observed 0800 UTC 18 January 2019
Temperature: -3.0°C (27°F)
Dewpoint: -8.0°C (18°F) [RH = 68%]
Pressure (altimeter): 29.85 inches Hg (1011.0 mb)
Winds: from the W (280 degrees) at 24 MPH (21 knots; 10.8 m/s)
Visibility: 4 miles ( 7 km)
Ceiling: 2500 feet AGL
Clouds: few clouds at 800 feet AGL
broken clouds at 2500 feet AGL
Weather: -SHSN BLSN  (light snow showers, blowing snow)

METAR text: RJSM 180700Z 27019KT 9999 -SHSN FEW008 SCT025 M03/M09 Q1011
Conditions at: RJSM (MISAWA(JASDF/AF/, JP) observed 0700 UTC 18 January 2019
Temperature: -3.0°C (27°F)
Dewpoint: -9.0°C (16°F) [RH = 63%]
Pressure (altimeter): 29.85 inches Hg (1011.0 mb)
Winds: from the W (270 degrees) at 22 MPH (19 knots; 9.8 m/s)
Visibility: 6 or more miles (10+ km)
Ceiling: at least 12,000 feet AGL
Clouds: few clouds at 800 feet AGL
scattered clouds at 2500 feet AGL
Weather: -SHSN  (light snow showers)

METAR text: RJSM 180600Z 29014KT 9999 FEW008 SCT025 M02/M10 Q1010
Conditions at: RJSM (MISAWA(JASDF/AF/, JP) observed 0600 UTC 18 January 2019
Temperature: -2.0°C (28°F)
Dewpoint: -10.0°C (14°F) [RH = 54%]
Pressure (altimeter): 29.82 inches Hg (1010.0 mb)
Winds: from the WNW (290 degrees) at 16 MPH (14 knots; 7.2 m/s)
Visibility: 6 or more miles (10+ km)
Ceiling: at least 12,000 feet AGL
Clouds: few clouds at 800 feet AGL
scattered clouds at 2500 feet AGL
Weather: no significant weather observed at this time

METAR text: RJSM 180500Z 29018KT 8000 -SHSN FEW008 BKN025 M03/M07 Q1010
Conditions at: RJSM (MISAWA(JASDF/AF/, JP) observed 0500 UTC 18 January 2019
Temperature: -3.0°C (27°F)
Dewpoint: -7.0°C (19°F) [RH = 74%]
Pressure (altimeter): 29.82 inches Hg (1010.0 mb)
Winds: from the WNW (290 degrees) at 21 MPH (18 knots; 9.3 m/s)
Visibility: 5 miles ( 8 km)
Ceiling: 2500 feet AGL
Clouds: few clouds at 800 feet AGL
broken clouds at 2500 feet AGL
Weather: -SHSN  (light snow showers)

METAR text: RJSM 180400Z 29020KT 9999 -SHSN FEW008 BKN030 M03/M08 Q1009
Conditions at: RJSM (MISAWA(JASDF/AF/, JP) observed 0400 UTC 18 January 2019
Temperature: -3.0°C (27°F)
Dewpoint: -8.0°C (18°F) [RH = 68%]
Pressure (altimeter): 29.79 inches Hg (1009.0 mb)
Winds: from the WNW (290 degrees) at 23 MPH (20 knots; 10.3 m/s)
Visibility: 6 or more miles (10+ km)
Ceiling: 3000 feet AGL
Clouds: few clouds at 800 feet AGL
broken clouds at 3000 feet AGL
Weather: -SHSN  (light snow showers)

METAR text: RJSM 180300Z 29018KT 9999 -SHSN FEW010 BKN030 M02/M09 Q1010
Conditions at: RJSM (MISAWA(JASDF/AF/, JP) observed 0300 UTC 18 January 2019
Temperature: -2.0°C (28°F)
Dewpoint: -9.0°C (16°F) [RH = 59%]
Pressure (altimeter): 29.82 inches Hg (1010.0 mb)
Winds: from the WNW (290 degrees) at 21 MPH (18 knots; 9.3 m/s)
Visibility: 6 or more miles (10+ km)
Ceiling: 3000 feet AGL
Clouds: few clouds at 1000 feet AGL
broken clouds at 3000 feet AGL
Weather: -SHSN  (light snow showers)

METAR text: RJSM 180200Z 28016KT 9999 -SHSN FEW010 SCT015 BKN030 M03/M09 Q1011
Conditions at: RJSM (MISAWA(JASDF/AF/, JP) observed 0200 UTC 18 January 2019
Temperature: -3.0°C (27°F)
Dewpoint: -9.0°C (16°F) [RH = 63%]
Pressure (altimeter): 29.85 inches Hg (1011.0 mb)
Winds: from the W (280 degrees) at 18 MPH (16 knots; 8.2 m/s)
Visibility: 6 or more miles (10+ km)
Ceiling: 3000 feet AGL
Clouds: few clouds at 1000 feet AGL
scattered clouds at 1500 feet AGL
broken clouds at 3000 feet AGL
Weather: -SHSN  (light snow showers)

METAR text: RJSM 180100Z 29006KT 8000 -SHSN FEW008 BKN015 BKN030 M03/M07 Q1011
Conditions at: RJSM (MISAWA(JASDF/AF/, JP) observed 0100 UTC 18 January 2019
Temperature: -3.0°C (27°F)
Dewpoint: -7.0°C (19°F) [RH = 74%]
Pressure (altimeter): 29.85 inches Hg (1011.0 mb)
Winds: from the WNW (290 degrees) at 7 MPH (6 knots; 3.1 m/s)
Visibility: 5 miles ( 8 km)
Ceiling: 1500 feet AGL
Clouds: few clouds at 800 feet AGL
broken clouds at 1500 feet AGL
broken clouds at 3000 feet AGL
Weather: -SHSN  (light snow showers)